^^
Saratoga-Weather Station Historical Data
Daily Summary for September 25, 2022 Units:  Both    English   Metric
Daily Weekly Monthly Yearly Custom
  High: Low: Average:
Temperature: 61 °F /  16.1 °C 47.3 °F /  8.5 °C 56.3 °F /  13.5 °C
Dew Point: 52.5 °F /  11.4 °C 43.7 °F /  6.5 °C 49.5 °F /  9.7 °C
Humidity: 88% 60% 78%
Wind Speed: 8.1mph /  13km/h - 1.8mph /  2.9km/h
Wind Gust: 10mph /  16.1km/h - -
Wind- - West
Pressure: 29.9 in /  1012.9 hPa 29.9 in /  1011.5 hPa -
Precipitation: 0 in /  0.0 mm    
Historical Graphs
 
 
Tabular Data for September 25, 2022
Time Temperature Dew Point Pressure Wind Wind Speed Wind Gust Humidity Rainfall Rate (Hourly) solar
00:02 56.7 °F /  13.7 °C 51.3 °F /  10.7 °C 29.9in /  1011.9hPa West 2.9mph /  4.7km/h 4mph /  6.4km/h 82% 0in /  0.0mm 0 W/m2
00:07 56.5 °F /  13.6 °C 51.1 °F /  10.6 °C 29.9in /  1012.2hPa WSW 2mph /  3.2km/h 3mph /  4.8km/h 82% 0in /  0.0mm 0 W/m2
00:12 56.3 °F /  13.5 °C 50.9 °F /  10.5 °C 29.9in /  1012.2hPa West 2mph /  3.2km/h 3mph /  4.8km/h 82% 0in /  0.0mm 0 W/m2
00:17 56.1 °F /  13.4 °C 50.7 °F /  10.4 °C 29.9in /  1012.2hPa WSW 2mph /  3.2km/h 3mph /  4.8km/h 82% 0in /  0.0mm 0 W/m2
00:22 56.1 °F /  13.4 °C 51.1 °F /  10.6 °C 29.9in /  1012.2hPa West 0.9mph /  1.4km/h 4mph /  6.4km/h 83% 0in /  0.0mm 0 W/m2
00:27 55.9 °F /  13.3 °C 50.9 °F /  10.5 °C 29.9in /  1012.2hPa West 2.9mph /  4.7km/h 4mph /  6.4km/h 83% 0in /  0.0mm 0 W/m2
00:32 55.9 °F /  13.3 °C 50.9 °F /  10.5 °C 29.9in /  1012.2hPa West 0.9mph /  1.4km/h 4mph /  6.4km/h 83% 0in /  0.0mm 0 W/m2
00:37 55.9 °F /  13.3 °C 50.9 °F /  10.5 °C 29.9in /  1012.2hPa West 2mph /  3.2km/h 3mph /  4.8km/h 83% 0in /  0.0mm 0 W/m2
00:42 55.9 °F /  13.3 °C 50.9 °F /  10.5 °C 29.9in /  1011.9hPa Calm   2mph /  3.2km/h 83% 0in /  0.0mm 0 W/m2
00:47 55.8 °F /  13.2 °C 50.7 °F /  10.4 °C 29.9in /  1011.9hPa West 2mph /  3.2km/h 3mph /  4.8km/h 83% 0in /  0.0mm 0 W/m2
00:52 55.8 °F /  13.2 °C 50.7 °F /  10.4 °C 29.9in /  1011.9hPa WSW 2.9mph /  4.7km/h 3mph /  4.8km/h 83% 0in /  0.0mm 0 W/m2
00:57 55.8 °F /  13.2 °C 50.7 °F /  10.4 °C 29.9in /  1012.2hPa West 4mph /  6.4km/h 4mph /  6.4km/h 83% 0in /  0.0mm 0 W/m2
01:02 55.8 °F /  13.2 °C 50.7 °F /  10.4 °C 29.9in /  1012.2hPa WSW 2mph /  3.2km/h 5mph /  8km/h 83% 0in /  0.0mm 0 W/m2
01:07 55.6 °F /  13.1 °C 50.5 °F /  10.3 °C 29.9in /  1012.2hPa West 2.9mph /  4.7km/h 3mph /  4.8km/h 83% 0in /  0.0mm 0 W/m2
01:12 55.6 °F /  13.1 °C 50.5 °F /  10.3 °C 29.9in /  1011.9hPa West 2mph /  3.2km/h 5mph /  8km/h 83% 0in /  0.0mm 0 W/m2
01:17 55.6 °F /  13.1 °C 50.5 °F /  10.3 °C 29.9in /  1011.9hPa West 2mph /  3.2km/h 3mph /  4.8km/h 83% 0in /  0.0mm 0 W/m2
01:22 55.6 °F /  13.1 °C 50.5 °F /  10.3 °C 29.9in /  1011.9hPa WNW 0.9mph /  1.4km/h 4mph /  6.4km/h 83% 0in /  0.0mm 0 W/m2
01:27 55.6 °F /  13.1 °C 50.5 °F /  10.3 °C 29.9in /  1011.9hPa WNW 2.9mph /  4.7km/h 4mph /  6.4km/h 83% 0in /  0.0mm 0 W/m2
01:32 55.6 °F /  13.1 °C 50.9 °F /  10.5 °C 29.9in /  1011.9hPa West 2.9mph /  4.7km/h 4mph /  6.4km/h 84% 0in /  0.0mm 0 W/m2
01:37 55.6 °F /  13.1 °C 50.9 °F /  10.5 °C 29.9in /  1011.9hPa WSW 2mph /  3.2km/h 3mph /  4.8km/h 84% 0in /  0.0mm 0 W/m2
01:42 55.6 °F /  13.1 °C 50.9 °F /  10.5 °C 29.9in /  1011.9hPa West 2mph /  3.2km/h 3mph /  4.8km/h 84% 0in /  0.0mm 0 W/m2
01:47 55.6 °F /  13.1 °C 51.1 °F /  10.6 °C 29.9in /  1011.9hPa WNW 2mph /  3.2km/h 3mph /  4.8km/h 85% 0in /  0.0mm 0 W/m2
01:52 55.4 °F /  13 °C 50.9 °F /  10.5 °C 29.9in /  1012.2hPa West 2.9mph /  4.7km/h 6mph /  9.7km/h 85% 0in /  0.0mm 0 W/m2
01:57 55.2 °F /  12.9 °C 50.7 °F /  10.4 °C 29.9in /  1012.2hPa West 2mph /  3.2km/h 3mph /  4.8km/h 85% 0in /  0.0mm 0 W/m2
02:02 55.2 °F /  12.9 °C 50.7 °F /  10.4 °C 29.9in /  1012.2hPa West 2mph /  3.2km/h 3mph /  4.8km/h 85% 0in /  0.0mm 0 W/m2
02:07 55.2 °F /  12.9 °C 50.7 °F /  10.4 °C 29.9in /  1012.2hPa WNW 2mph /  3.2km/h 3mph /  4.8km/h 85% 0in /  0.0mm 0 W/m2
02:12 55.2 °F /  12.9 °C 51.1 °F /  10.6 °C 29.9in /  1012.2hPa WNW 2.9mph /  4.7km/h 5mph /  8km/h 86% 0in /  0.0mm 0 W/m2
02:17 55 °F /  12.8 °C 50.9 °F /  10.5 °C 29.9in /  1012.2hPa West 2mph /  3.2km/h 4mph /  6.4km/h 86% 0in /  0.0mm 0 W/m2
02:22 55 °F /  12.8 °C 50.9 °F /  10.5 °C 29.9in /  1012.2hPa West 2mph /  3.2km/h 6mph /  9.7km/h 86% 0in /  0.0mm 0 W/m2
02:27 55 °F /  12.8 °C 50.9 °F /  10.5 °C 29.9in /  1012.2hPa West 2.9mph /  4.7km/h 4mph /  6.4km/h 86% 0in /  0.0mm 0 W/m2
02:32 55 °F /  12.8 °C 50.9 °F /  10.5 °C 29.9in /  1012.2hPa WSW 2mph /  3.2km/h 4mph /  6.4km/h 86% 0in /  0.0mm 0 W/m2
02:37 55 °F /  12.8 °C 50.9 °F /  10.5 °C 29.9in /  1012.2hPa West 0.9mph /  1.4km/h 4mph /  6.4km/h 86% 0in /  0.0mm 0 W/m2
02:42 55 °F /  12.8 °C 50.9 °F /  10.5 °C 29.9in /  1012.2hPa WSW 2mph /  3.2km/h 4mph /  6.4km/h 86% 0in /  0.0mm 0 W/m2
02:47 55 °F /  12.8 °C 50.9 °F /  10.5 °C 29.9in /  1012.2hPa West 0.9mph /  1.4km/h 3mph /  4.8km/h 86% 0in /  0.0mm 0 W/m2
02:52 55 °F /  12.8 °C 50.9 °F /  10.5 °C 29.9in /  1012.2hPa West 0.9mph /  1.4km/h 3mph /  4.8km/h 86% 0in /  0.0mm 0 W/m2
02:57 55 °F /  12.8 °C 50.9 °F /  10.5 °C 29.9in /  1012.2hPa Calm   2mph /  3.2km/h 86% 0in /  0.0mm 0 W/m2
03:02 55 °F /  12.8 °C 50.9 °F /  10.5 °C 29.9in /  1012.2hPa West 0.9mph /  1.4km/h 2mph /  3.2km/h 86% 0in /  0.0mm 0 W/m2
03:07 55 °F /  12.8 °C 50.9 °F /  10.5 °C 29.9in /  1011.9hPa West 0.9mph /  1.4km/h 2mph /  3.2km/h 86% 0in /  0.0mm 0 W/m2
03:12 54.9 °F /  12.7 °C 50.7 °F /  10.4 °C 29.9in /  1011.9hPa West 2mph /  3.2km/h 3mph /  4.8km/h 86% 0in /  0.0mm 0 W/m2
03:17 54.9 °F /  12.7 °C 50.7 °F /  10.4 °C 29.9in /  1011.9hPa West 0.9mph /  1.4km/h 3mph /  4.8km/h 86% 0in /  0.0mm 0 W/m2
03:22 54.9 °F /  12.7 °C 50.7 °F /  10.4 °C 29.9in /  1011.9hPa West 2.9mph /  4.7km/h 4mph /  6.4km/h 86% 0in /  0.0mm 0 W/m2
03:27 54.9 °F /  12.7 °C 50.7 °F /  10.4 °C 29.9in /  1011.9hPa West 4mph /  6.4km/h 4mph /  6.4km/h 86% 0in /  0.0mm 0 W/m2
03:32 54.9 °F /  12.7 °C 50.7 °F /  10.4 °C 29.9in /  1011.9hPa West 4mph /  6.4km/h 4mph /  6.4km/h 86% 0in /  0.0mm 0 W/m2
03:37 54.9 °F /  12.7 °C 50.7 °F /  10.4 °C 29.9in /  1011.9hPa West 2mph /  3.2km/h 4mph /  6.4km/h 86% 0in /  0.0mm 0 W/m2
03:42 54.9 °F /  12.7 °C 50.7 °F /  10.4 °C 29.9in /  1011.9hPa West 0.9mph /  1.4km/h 3mph /  4.8km/h 86% 0in /  0.0mm 0 W/m2
03:47 54.9 °F /  12.7 °C 50.7 °F /  10.4 °C 29.9in /  1011.9hPa West 0.9mph /  1.4km/h 4mph /  6.4km/h 86% 0in /  0.0mm 0 W/m2
03:52 54.9 °F /  12.7 °C 50.7 °F /  10.4 °C 29.9in /  1011.9hPa West 2mph /  3.2km/h 2mph /  3.2km/h 86% 0in /  0.0mm 0 W/m2
03:57 54.9 °F /  12.7 °C 50.7 °F /  10.4 °C 29.9in /  1011.9hPa West 2mph /  3.2km/h 3mph /  4.8km/h 86% 0in /  0.0mm 0 W/m2
04:02 54.9 °F /  12.7 °C 50.7 °F /  10.4 °C 29.9in /  1011.9hPa West 2mph /  3.2km/h 4mph /  6.4km/h 86% 0in /  0.0mm 0 W/m2
04:07 54.9 °F /  12.7 °C 50.7 °F /  10.4 °C 29.9in /  1011.9hPa West 2.9mph /  4.7km/h 3mph /  4.8km/h 86% 0in /  0.0mm 0 W/m2
04:12 54.9 °F /  12.7 °C 50.7 °F /  10.4 °C 29.9in /  1011.9hPa West 2mph /  3.2km/h 3mph /  4.8km/h 86% 0in /  0.0mm 0 W/m2
04:17 54.9 °F /  12.7 °C 50.7 °F /  10.4 °C 29.9in /  1011.9hPa WNW 2mph /  3.2km/h 4mph /  6.4km/h 86% 0in /  0.0mm 0 W/m2
04:22 54.9 °F /  12.7 °C 50.7 °F /  10.4 °C 29.9in /  1011.9hPa WNW 2mph /  3.2km/h 3mph /  4.8km/h 86% 0in /  0.0mm 0 W/m2
04:27 54.9 °F /  12.7 °C 50.7 °F /  10.4 °C 29.9in /  1011.9hPa West 2.9mph /  4.7km/h 3mph /  4.8km/h 86% 0in /  0.0mm 0 W/m2
04:32 54.9 °F /  12.7 °C 50.7 °F /  10.4 °C 29.9in /  1011.9hPa West 2.9mph /  4.7km/h 3mph /  4.8km/h 86% 0in /  0.0mm 0 W/m2
04:37 54.9 °F /  12.7 °C 50.7 °F /  10.4 °C 29.9in /  1011.9hPa West 2mph /  3.2km/h 2mph /  3.2km/h 86% 0in /  0.0mm 0 W/m2
04:42 54.9 °F /  12.7 °C 50.7 °F /  10.4 °C 29.9in /  1011.9hPa West 2mph /  3.2km/h 2mph /  3.2km/h 86% 0in /  0.0mm 0 W/m2
04:47 54.9 °F /  12.7 °C 50.7 °F /  10.4 °C 29.9in /  1011.9hPa West 2mph /  3.2km/h 3mph /  4.8km/h 86% 0in /  0.0mm 0 W/m2
04:52 54.9 °F /  12.7 °C 50.7 °F /  10.4 °C 29.9in /  1011.9hPa WNW 2mph /  3.2km/h 4mph /  6.4km/h 86% 0in /  0.0mm 0 W/m2
04:57 54.9 °F /  12.7 °C 50.7 °F /  10.4 °C 29.9in /  1011.9hPa West 2mph /  3.2km/h 3mph /  4.8km/h 86% 0in /  0.0mm 0 W/m2
05:02 54.9 °F /  12.7 °C 50.7 °F /  10.4 °C 29.9in /  1011.9hPa West 2mph /  3.2km/h 4mph /  6.4km/h 86% 0in /  0.0mm 0 W/m2
05:07 54.9 °F /  12.7 °C 50.7 °F /  10.4 °C 29.9in /  1011.9hPa NW 0.9mph /  1.4km/h 4mph /  6.4km/h 86% 0in /  0.0mm 0 W/m2
05:12 54.9 °F /  12.7 °C 50.7 °F /  10.4 °C 29.9in /  1011.9hPa NW 2mph /  3.2km/h 2mph /  3.2km/h 86% 0in /  0.0mm 0 W/m2
05:17 54.9 °F /  12.7 °C 50.7 °F /  10.4 °C 29.9in /  1011.9hPa WNW 2mph /  3.2km/h 2mph /  3.2km/h 86% 0in /  0.0mm 0 W/m2
05:22 54.9 °F /  12.7 °C 50.7 °F /  10.4 °C 29.9in /  1011.9hPa WNW 0.9mph /  1.4km/h 3mph /  4.8km/h 86% 0in /  0.0mm 0 W/m2
05:27 54.9 °F /  12.7 °C 50.7 °F /  10.4 °C 29.9in /  1011.5hPa Calm   3mph /  4.8km/h 86% 0in /  0.0mm 0 W/m2
05:32 54.9 °F /  12.7 °C 50.7 °F /  10.4 °C 29.9in /  1011.9hPa West 2.9mph /  4.7km/h 3mph /  4.8km/h 86% 0in /  0.0mm 0 W/m2
05:37 54.9 °F /  12.7 °C 50.7 °F /  10.4 °C 29.9in /  1011.5hPa West 2mph /  3.2km/h 4mph /  6.4km/h 86% 0in /  0.0mm 0 W/m2
05:42 54.7 °F /  12.6 °C 50.5 °F /  10.3 °C 29.9in /  1011.5hPa WNW 2mph /  3.2km/h 3mph /  4.8km/h 86% 0in /  0.0mm 0 W/m2
05:47 54.3 °F /  12.4 °C 50.2 °F /  10.1 °C 29.9in /  1011.9hPa West 2mph /  3.2km/h 4mph /  6.4km/h 86% 0in /  0.0mm 0 W/m2
05:52 54.3 °F /  12.4 °C 50.5 °F /  10.3 °C 29.9in /  1011.9hPa WSW 2.9mph /  4.7km/h 7mph /  11.3km/h 87% 0in /  0.0mm 0 W/m2
05:57 54.1 °F /  12.3 °C 50.4 °F /  10.2 °C 29.9in /  1011.9hPa WNW 2.9mph /  4.7km/h 3mph /  4.8km/h 87% 0in /  0.0mm 0 W/m2
06:02 54 °F /  12.2 °C 50.2 °F /  10.1 °C 29.9in /  1011.9hPa West 0.9mph /  1.4km/h 4mph /  6.4km/h 87% 0in /  0.0mm 0 W/m2
06:07 54 °F /  12.2 °C 50.5 °F /  10.3 °C 29.9in /  1011.9hPa West 2mph /  3.2km/h 3mph /  4.8km/h 88% 0in /  0.0mm 0 W/m2
06:12 54 °F /  12.2 °C 50.5 °F /  10.3 °C 29.9in /  1011.9hPa West 2mph /  3.2km/h 4mph /  6.4km/h 88% 0in /  0.0mm 0 W/m2
06:17 54 °F /  12.2 °C 50.5 °F /  10.3 °C 29.9in /  1011.9hPa West 4mph /  6.4km/h 6mph /  9.7km/h 88% 0in /  0.0mm 0 W/m2
06:22 54 °F /  12.2 °C 50.5 °F /  10.3 °C 29.9in /  1011.9hPa West 4mph /  6.4km/h 4mph /  6.4km/h 88% 0in /  0.0mm 0 W/m2
06:27 54.1 °F /  12.3 °C 50.7 °F /  10.4 °C 29.9in /  1011.9hPa West 4mph /  6.4km/h 4mph /  6.4km/h 88% 0in /  0.0mm 0 W/m2
06:32 54.1 °F /  12.3 °C 50.7 °F /  10.4 °C 29.9in /  1011.5hPa WNW 2.9mph /  4.7km/h 4mph /  6.4km/h 88% 0in /  0.0mm 0 W/m2
06:37 54.3 °F /  12.4 °C 50.9 °F /  10.5 °C 29.9in /  1011.9hPa WSW 2mph /  3.2km/h 6mph /  9.7km/h 88% 0in /  0.0mm 0 W/m2
06:42 54.5 °F /  12.5 °C 51.1 °F /  10.6 °C 29.9in /  1011.9hPa West 2mph /  3.2km/h 4mph /  6.4km/h 88% 0in /  0.0mm 0 W/m2
06:47 54.7 °F /  12.6 °C 50.9 °F /  10.5 °C 29.9in /  1011.9hPa West 2.9mph /  4.7km/h 3mph /  4.8km/h 87% 0in /  0.0mm 0 W/m2
06:52 54.7 °F /  12.6 °C 50.9 °F /  10.5 °C 29.9in /  1011.9hPa West 0.9mph /  1.4km/h 4mph /  6.4km/h 87% 0in /  0.0mm 0 W/m2
06:57 54.7 °F /  12.6 °C 50.9 °F /  10.5 °C 29.9in /  1011.9hPa WNW 0.9mph /  1.4km/h 4mph /  6.4km/h 87% 0in /  0.0mm 0 W/m2
07:03 54.7 °F /  12.6 °C 50.9 °F /  10.5 °C 29.9in /  1011.9hPa West 2mph /  3.2km/h 6mph /  9.7km/h 87% 0in /  0.0mm 0 W/m2
07:08 54.7 °F /  12.6 °C 50.9 °F /  10.5 °C 29.9in /  1011.9hPa WNW 2.9mph /  4.7km/h 6mph /  9.7km/h 87% 0in /  0.0mm 0 W/m2
07:13 54.9 °F /  12.7 °C 51.1 °F /  10.6 °C 29.9in /  1011.9hPa West 2mph /  3.2km/h 4mph /  6.4km/h 87% 0in /  0.0mm 0 W/m2
07:18 54.9 °F /  12.7 °C 51.1 °F /  10.6 °C 29.9in /  1011.9hPa WNW 2.9mph /  4.7km/h 4mph /  6.4km/h 87% 0in /  0.0mm 0 W/m2
07:23 54.9 °F /  12.7 °C 51.1 °F /  10.6 °C 29.9in /  1011.9hPa West 4mph /  6.4km/h 4mph /  6.4km/h 87% 0in /  0.0mm 0 W/m2
07:28 54.9 °F /  12.7 °C 51.1 °F /  10.6 °C 29.9in /  1011.9hPa WNW 2mph /  3.2km/h 3mph /  4.8km/h 87% 0in /  0.0mm 0 W/m2
07:33 55 °F /  12.8 °C 50.9 °F /  10.5 °C 29.9in /  1011.9hPa West 2.9mph /  4.7km/h 3mph /  4.8km/h 86% 0in /  0.0mm 0 W/m2
07:38 55 °F /  12.8 °C 50.9 °F /  10.5 °C 29.9in /  1011.9hPa West 0.9mph /  1.4km/h 3mph /  4.8km/h 86% 0in /  0.0mm 5 W/m2
07:43 55 °F /  12.8 °C 50.9 °F /  10.5 °C 29.9in /  1011.9hPa NW 2.9mph /  4.7km/h 9mph /  14.5km/h 86% 0in /  0.0mm 7 W/m2
07:48 55 °F /  12.8 °C 50.9 °F /  10.5 °C 29.9in /  1011.9hPa NW 2mph /  3.2km/h 4mph /  6.4km/h 86% 0in /  0.0mm 11 W/m2
07:53 55 °F /  12.8 °C 50.9 °F /  10.5 °C 29.9in /  1011.9hPa NNW 0.9mph /  1.4km/h 9mph /  14.5km/h 86% 0in /  0.0mm 12 W/m2
07:58 55 °F /  12.8 °C 50.9 °F /  10.5 °C 29.9in /  1012.2hPa WNW 0.9mph /  1.4km/h 2mph /  3.2km/h 86% 0in /  0.0mm 14 W/m2
08:03 55.2 °F /  12.9 °C 51.1 °F /  10.6 °C 29.9in /  1012.2hPa West 2.9mph /  4.7km/h 6mph /  9.7km/h 86% 0in /  0.0mm 14 W/m2
08:08 55.2 °F /  12.9 °C 51.1 °F /  10.6 °C 29.9in /  1012.2hPa West 6mph /  9.7km/h 6mph /  9.7km/h 86% 0in /  0.0mm 16 W/m2
08:13 55.4 °F /  13 °C 50.9 °F /  10.5 °C 29.9in /  1012.2hPa WNW 2mph /  3.2km/h 5mph /  8km/h 85% 0in /  0.0mm 21 W/m2
08:18 55.4 °F /  13 °C 50.9 °F /  10.5 °C 29.9in /  1012.2hPa Calm   3mph /  4.8km/h 85% 0in /  0.0mm 18 W/m2
08:23 55.6 °F /  13.1 °C 51.1 °F /  10.6 °C 29.9in /  1012.2hPa West 2mph /  3.2km/h 5mph /  8km/h 85% 0in /  0.0mm 19 W/m2
08:28 55.6 °F /  13.1 °C 51.1 °F /  10.6 °C 29.9in /  1012.2hPa WNW 2mph /  3.2km/h 6mph /  9.7km/h 85% 0in /  0.0mm 23 W/m2
08:33 55.6 °F /  13.1 °C 51.1 °F /  10.6 °C 29.9in /  1012.2hPa WNW 0.9mph /  1.4km/h 2mph /  3.2km/h 85% 0in /  0.0mm 25 W/m2
08:38 55.6 °F /  13.1 °C 51.1 °F /  10.6 °C 29.9in /  1012.2hPa WSW 2.9mph /  4.7km/h 4mph /  6.4km/h 85% 0in /  0.0mm 33 W/m2
08:43 55.6 °F /  13.1 °C 51.1 °F /  10.6 °C 29.9in /  1012.2hPa WNW 2.9mph /  4.7km/h 4mph /  6.4km/h 85% 0in /  0.0mm 37 W/m2
08:48 55.6 °F /  13.1 °C 51.1 °F /  10.6 °C 29.9in /  1012.2hPa WNW 0.9mph /  1.4km/h 2mph /  3.2km/h 85% 0in /  0.0mm 33 W/m2
08:53 55.6 °F /  13.1 °C 51.1 °F /  10.6 °C 29.9in /  1012.2hPa Calm   4mph /  6.4km/h 85% 0in /  0.0mm 32 W/m2
08:58 55.6 °F /  13.1 °C 51.1 °F /  10.6 °C 29.9in /  1012.2hPa WSW 4mph /  6.4km/h 4mph /  6.4km/h 85% 0in /  0.0mm 39 W/m2
09:03 55.6 °F /  13.1 °C 51.1 °F /  10.6 °C 29.9in /  1012.2hPa West 2mph /  3.2km/h 4mph /  6.4km/h 85% 0in /  0.0mm 51 W/m2
09:08 55.8 °F /  13.2 °C 51.3 °F /  10.7 °C 29.9in /  1012.2hPa WNW 2.9mph /  4.7km/h 4mph /  6.4km/h 85% 0in /  0.0mm 60 W/m2
09:13 55.8 °F /  13.2 °C 51.3 °F /  10.7 °C 29.9in /  1012.2hPa West 2.9mph /  4.7km/h 3mph /  4.8km/h 85% 0in /  0.0mm 60 W/m2
09:18 55.9 °F /  13.3 °C 51.4 °F /  10.8 °C 29.9in /  1012.2hPa WNW 0.9mph /  1.4km/h 2mph /  3.2km/h 85% 0in /  0.0mm 77 W/m2
09:23 55.9 °F /  13.3 °C 51.4 °F /  10.8 °C 29.9in /  1012.2hPa West 2.9mph /  4.7km/h 3mph /  4.8km/h 85% 0in /  0.0mm 76 W/m2
09:28 56.1 °F /  13.4 °C 51.4 °F /  10.8 °C 29.9in /  1012.5hPa NW 0.9mph /  1.4km/h 3mph /  4.8km/h 84% 0in /  0.0mm 77 W/m2
09:33 56.3 °F /  13.5 °C 51.4 °F /  10.8 °C 29.9in /  1012.5hPa Calm   3mph /  4.8km/h 84% 0in /  0.0mm 81 W/m2
09:38 56.5 °F /  13.6 °C 52 °F /  11.1 °C 29.9in /  1012.5hPa NNW 2mph /  3.2km/h 3mph /  4.8km/h 85% 0in /  0.0mm 76 W/m2
09:43 56.7 °F /  13.7 °C 51.8 °F /  11 °C 29.9in /  1012.5hPa NNW 0.9mph /  1.4km/h 4mph /  6.4km/h 84% 0in /  0.0mm 63 W/m2
09:48 56.8 °F /  13.8 °C 51.8 °F /  11 °C 29.9in /  1012.2hPa NNW 2mph /  3.2km/h 3mph /  4.8km/h 83% 0in /  0.0mm 91 W/m2
09:53 57 °F /  13.9 °C 52 °F /  11.1 °C 29.9in /  1012.2hPa WNW 0.9mph /  1.4km/h 8mph /  12.9km/h 83% 0in /  0.0mm 102 W/m2
09:58 57.2 °F /  14 °C 51.8 °F /  11 °C 29.9in /  1012.5hPa NW 0.9mph /  1.4km/h 4mph /  6.4km/h 82% 0in /  0.0mm 97 W/m2
10:03 57.4 °F /  14.1 °C 52 °F /  11.1 °C 29.9in /  1012.5hPa North 2mph /  3.2km/h 8mph /  12.9km/h 82% 0in /  0.0mm 91 W/m2
10:08 57.4 °F /  14.1 °C 52 °F /  11.1 °C 29.9in /  1012.5hPa WNW 2.9mph /  4.7km/h 6mph /  9.7km/h 82% 0in /  0.0mm 72 W/m2
10:13 57.4 °F /  14.1 °C 52 °F /  11.1 °C 29.9in /  1012.5hPa West 0.9mph /  1.4km/h 7mph /  11.3km/h 82% 0in /  0.0mm 88 W/m2
10:18 57.4 °F /  14.1 °C 52 °F /  11.1 °C 29.9in /  1012.2hPa West 4mph /  6.4km/h 4mph /  6.4km/h 82% 0in /  0.0mm 151 W/m2
10:23 57.6 °F /  14.2 °C 52.2 °F /  11.2 °C 29.9in /  1012.2hPa West 6.9mph /  11.1km/h 7mph /  11.3km/h 82% 0in /  0.0mm 149 W/m2
10:28 57.6 °F /  14.2 °C 51.8 °F /  11 °C 29.9in /  1012.5hPa WNW 4mph /  6.4km/h 7mph /  11.3km/h 81% 0in /  0.0mm 162 W/m2
10:33 57.6 °F /  14.2 °C 51.8 °F /  11 °C 29.9in /  1012.5hPa NW 2mph /  3.2km/h 5mph /  8km/h 81% 0in /  0.0mm 183 W/m2
10:38 57.7 °F /  14.3 °C 52 °F /  11.1 °C 29.9in /  1012.5hPa WNW 6.9mph /  11.1km/h 10mph /  16.1km/h 81% 0in /  0.0mm 160 W/m2
10:43 57.9 °F /  14.4 °C 51.8 °F /  11 °C 29.9in /  1012.2hPa WNW 0.9mph /  1.4km/h 6mph /  9.7km/h 80% 0in /  0.0mm 174 W/m2
10:48 57.9 °F /  14.4 °C 51.8 °F /  11 °C 29.9in /  1012.2hPa ENE 0.9mph /  1.4km/h 4mph /  6.4km/h 80% 0in /  0.0mm 190 W/m2
10:53 58.3 °F /  14.6 °C 52.5 °F /  11.4 °C 29.9in /  1012.2hPa WSW 2mph /  3.2km/h 7mph /  11.3km/h 81% 0in /  0.0mm 188 W/m2
10:58 58.5 °F /  14.7 °C 52.3 °F /  11.3 °C 29.9in /  1012.5hPa NW 0.9mph /  1.4km/h 2mph /  3.2km/h 80% 0in /  0.0mm 155 W/m2
11:03 58.5 °F /  14.7 °C 52 °F /  11.1 °C 29.9in /  1012.2hPa WNW 2mph /  3.2km/h 4mph /  6.4km/h 79% 0in /  0.0mm 114 W/m2
11:08 58.6 °F /  14.8 °C 52.2 °F /  11.2 °C 29.9in /  1012.5hPa West 2.9mph /  4.7km/h 3mph /  4.8km/h 79% 0in /  0.0mm 83 W/m2
11:13 58.5 °F /  14.7 °C 52 °F /  11.1 °C 29.9in /  1012.5hPa WNW 2.9mph /  4.7km/h 7mph /  11.3km/h 79% 0in /  0.0mm 91 W/m2
11:18 58.5 °F /  14.7 °C 52 °F /  11.1 °C 29.9in /  1012.5hPa NNW 4mph /  6.4km/h 8mph /  12.9km/h 79% 0in /  0.0mm 109 W/m2
11:23 58.5 °F /  14.7 °C 52 °F /  11.1 °C 29.9in /  1012.5hPa NNW 0.9mph /  1.4km/h 7mph /  11.3km/h 79% 0in /  0.0mm 95 W/m2
11:28 58.3 °F /  14.6 °C 51.8 °F /  11 °C 29.9in /  1012.5hPa NW 0.9mph /  1.4km/h 4mph /  6.4km/h 79% 0in /  0.0mm 104 W/m2
11:33 58.3 °F /  14.6 °C 51.8 °F /  11 °C 29.9in /  1012.5hPa NW 2.9mph /  4.7km/h 6mph /  9.7km/h 79% 0in /  0.0mm 153 W/m2
11:38 58.3 °F /  14.6 °C 51.8 °F /  11 °C 29.9in /  1012.5hPa West 2.9mph /  4.7km/h 6mph /  9.7km/h 79% 0in /  0.0mm 142 W/m2
11:43 58.5 °F /  14.7 °C 52 °F /  11.1 °C 29.9in /  1012.5hPa NNW 2mph /  3.2km/h 4mph /  6.4km/h 79% 0in /  0.0mm 125 W/m2
11:48 58.5 °F /  14.7 °C 52 °F /  11.1 °C 29.9in /  1012.5hPa WSW 2mph /  3.2km/h 10mph /  16.1km/h 79% 0in /  0.0mm 188 W/m2
11:53 58.5 °F /  14.7 °C 52 °F /  11.1 °C 29.9in /  1012.5hPa East 2.9mph /  4.7km/h 8mph /  12.9km/h 79% 0in /  0.0mm 202 W/m2
11:58 58.6 °F /  14.8 °C 51.8 °F /  11 °C 29.9in /  1012.5hPa NW 0.9mph /  1.4km/h 10mph /  16.1km/h 78% 0in /  0.0mm 211 W/m2
12:03 58.8 °F /  14.9 °C 52 °F /  11.1 °C 29.9in /  1012.5hPa West 4mph /  6.4km/h 6mph /  9.7km/h 78% 0in /  0.0mm 241 W/m2
12:08 58.8 °F /  14.9 °C 52 °F /  11.1 °C 29.9in /  1012.9hPa North 4mph /  6.4km/h 5mph /  8km/h 78% 0in /  0.0mm 128 W/m2
12:13 58.8 °F /  14.9 °C 52 °F /  11.1 °C 29.9in /  1012.9hPa North 2mph /  3.2km/h 7mph /  11.3km/h 78% 0in /  0.0mm 130 W/m2
12:18 58.8 °F /  14.9 °C 52 °F /  11.1 °C 29.9in /  1012.5hPa NW 2mph /  3.2km/h 2mph /  3.2km/h 78% 0in /  0.0mm 149 W/m2
12:23 58.8 °F /  14.9 °C 51.6 °F /  10.9 °C 29.9in /  1012.5hPa NE 4mph /  6.4km/h 4mph /  6.4km/h 77% 0in /  0.0mm 195 W/m2
12:28 59 °F /  15 °C 51.8 °F /  11 °C 29.9in /  1012.5hPa WSW 4mph /  6.4km/h 8mph /  12.9km/h 77% 0in /  0.0mm 151 W/m2
12:33 58.8 °F /  14.9 °C 51.6 °F /  10.9 °C 29.9in /  1012.5hPa Calm   3mph /  4.8km/h 77% 0in /  0.0mm 58 W/m2
12:38 58.6 °F /  14.8 °C 51.4 °F /  10.8 °C 29.9in /  1012.5hPa NNE 0.9mph /  1.4km/h 4mph /  6.4km/h 77% 0in /  0.0mm 35 W/m2
12:43 58.6 °F /  14.8 °C 51.8 °F /  11 °C 29.9in /  1012.5hPa WNW 0.9mph /  1.4km/h 4mph /  6.4km/h 78% 0in /  0.0mm 40 W/m2
12:48 58.5 °F /  14.7 °C 51.6 °F /  10.9 °C 29.9in /  1012.5hPa NNW 2mph /  3.2km/h 6mph /  9.7km/h 78% 0in /  0.0mm 47 W/m2
12:53 58.5 °F /  14.7 °C 52 °F /  11.1 °C 29.9in /  1012.5hPa NW 0.9mph /  1.4km/h 3mph /  4.8km/h 79% 0in /  0.0mm 51 W/m2
12:58 58.3 °F /  14.6 °C 51.8 °F /  11 °C 29.9in /  1012.5hPa NNW 2mph /  3.2km/h 6mph /  9.7km/h 79% 0in /  0.0mm 74 W/m2
13:03 58.3 °F /  14.6 °C 51.8 °F /  11 °C 29.9in /  1012.5hPa WNW 2mph /  3.2km/h 2mph /  3.2km/h 79% 0in /  0.0mm 118 W/m2
13:08 58.5 °F /  14.7 °C 52 °F /  11.1 °C 29.9in /  1012.5hPa West 4mph /  6.4km/h 5mph /  8km/h 79% 0in /  0.0mm 125 W/m2
13:13 58.5 °F /  14.7 °C 52 °F /  11.1 °C 29.9in /  1012.5hPa WNW 2mph /  3.2km/h 2mph /  3.2km/h 79% 0in /  0.0mm 130 W/m2
13:18 58.6 °F /  14.8 °C 51.8 °F /  11 °C 29.9in /  1012.9hPa West 6mph /  9.7km/h 8mph /  12.9km/h 78% 0in /  0.0mm 130 W/m2
13:23 58.6 °F /  14.8 °C 51.4 °F /  10.8 °C 29.9in /  1012.9hPa WNW 2mph /  3.2km/h 3mph /  4.8km/h 77% 0in /  0.0mm 130 W/m2
13:28 58.8 °F /  14.9 °C 51.6 °F /  10.9 °C 29.9in /  1012.5hPa West 2.9mph /  4.7km/h 3mph /  4.8km/h 77% 0in /  0.0mm 111 W/m2
13:33 59 °F /  15 °C 51.8 °F /  11 °C 29.9in /  1012.5hPa WNW 6.9mph /  11.1km/h 8mph /  12.9km/h 77% 0in /  0.0mm 83 W/m2
13:38 59.2 °F /  15.1 °C 51.6 °F /  10.9 °C 29.9in /  1012.9hPa NW 2mph /  3.2km/h 4mph /  6.4km/h 76% 0in /  0.0mm 97 W/m2
13:43 59.2 °F /  15.1 °C 52 °F /  11.1 °C 29.9in /  1012.9hPa South 8mph /  12.9km/h 8mph /  12.9km/h 77% 0in /  0.0mm 118 W/m2
13:48 59.2 °F /  15.1 °C 51.6 °F /  10.9 °C 29.9in /  1012.9hPa NNW 2mph /  3.2km/h 4mph /  6.4km/h 76% 0in /  0.0mm 107 W/m2
13:53 59 °F /  15 °C 51.8 °F /  11 °C 29.9in /  1012.9hPa WNW 2.9mph /  4.7km/h 5mph /  8km/h 77% 0in /  0.0mm 90 W/m2
13:58 58.8 °F /  14.9 °C 51.3 °F /  10.7 °C 29.9in /  1012.9hPa West 2.9mph /  4.7km/h 7mph /  11.3km/h 76% 0in /  0.0mm 81 W/m2
14:03 58.6 °F /  14.8 °C 51.1 °F /  10.6 °C 29.9in /  1012.9hPa Calm   3mph /  4.8km/h 76% 0in /  0.0mm 84 W/m2
14:08 58.6 °F /  14.8 °C 51.1 °F /  10.6 °C 29.9in /  1012.9hPa East 0.9mph /  1.4km/h 2mph /  3.2km/h 76% 0in /  0.0mm 104 W/m2
14:13 58.8 °F /  14.9 °C 50.9 °F /  10.5 °C 29.9in /  1012.9hPa Calm   3mph /  4.8km/h 75% 0in /  0.0mm 109 W/m2
14:18 58.8 °F /  14.9 °C 51.3 °F /  10.7 °C 29.9in /  1012.9hPa Calm   3mph /  4.8km/h 76% 0in /  0.0mm 139 W/m2
14:23 59 °F /  15 °C 51.1 °F /  10.6 °C 29.9in /  1012.9hPa NW 0.9mph /  1.4km/h 5mph /  8km/h 75% 0in /  0.0mm 176 W/m2
14:28 59.2 °F /  15.1 °C 51.3 °F /  10.7 °C 29.9in /  1012.9hPa WNW 2mph /  3.2km/h 3mph /  4.8km/h 75% 0in /  0.0mm 204 W/m2
14:33 59.4 °F /  15.2 °C 51.1 °F /  10.6 °C 29.9in /  1012.9hPa East 2mph /  3.2km/h 4mph /  6.4km/h 74% 0in /  0.0mm 149 W/m2
14:38 59.5 °F /  15.3 °C 50.9 °F /  10.5 °C 29.9in /  1012.9hPa WSW 8.1mph /  13km/h 9mph /  14.5km/h 73% 0in /  0.0mm 63 W/m2
14:43 59.2 °F /  15.1 °C 50.5 °F /  10.3 °C 29.9in /  1012.9hPa WNW 6mph /  9.7km/h 9mph /  14.5km/h 73% 0in /  0.0mm 69 W/m2
14:48 58.8 °F /  14.9 °C 50.5 °F /  10.3 °C 29.9in /  1012.9hPa NE 2.9mph /  4.7km/h 9mph /  14.5km/h 74% 0in /  0.0mm 56 W/m2
14:53 58.8 °F /  14.9 °C 50.9 °F /  10.5 °C 29.9in /  1012.9hPa NNW 0.9mph /  1.4km/h 5mph /  8km/h 75% 0in /  0.0mm 63 W/m2
14:58 58.6 °F /  14.8 °C 50.7 °F /  10.4 °C 29.9in /  1012.9hPa Calm   9mph /  14.5km/h 75% 0in /  0.0mm 74 W/m2
15:03 58.6 °F /  14.8 °C 51.1 °F /  10.6 °C 29.9in /  1012.9hPa ENE 4.9mph /  7.9km/h 5mph /  8km/h 76% 0in /  0.0mm 100 W/m2
15:08 58.5 °F /  14.7 °C 50.5 °F /  10.3 °C 29.9in /  1012.9hPa SE 0.9mph /  1.4km/h 2mph /  3.2km/h 75% 0in /  0.0mm 130 W/m2
15:13 58.6 °F /  14.8 °C 50.4 °F /  10.2 °C 29.9in /  1012.5hPa Calm   4mph /  6.4km/h 74% 0in /  0.0mm 158 W/m2
15:18 58.6 °F /  14.8 °C 50.4 °F /  10.2 °C 29.9in /  1012.5hPa NW 2.9mph /  4.7km/h 4mph /  6.4km/h 74% 0in /  0.0mm 165 W/m2
15:23 58.8 °F /  14.9 °C 50.2 °F /  10.1 °C 29.9in /  1012.9hPa NNW 0.9mph /  1.4km/h 4mph /  6.4km/h 73% 0in /  0.0mm 167 W/m2
15:28 59.2 °F /  15.1 °C 50.2 °F /  10.1 °C 29.9in /  1012.5hPa NW 2mph /  3.2km/h 2mph /  3.2km/h 72% 0in /  0.0mm 209 W/m2
15:33 59.4 °F /  15.2 °C 50.4 °F /  10.2 °C 29.9in /  1012.5hPa East 4mph /  6.4km/h 6mph /  9.7km/h 72% 0in /  0.0mm 258 W/m2
15:38 59.7 °F /  15.4 °C 50 °F /  10 °C 29.9in /  1012.5hPa NNW 0.9mph /  1.4km/h 3mph /  4.8km/h 70% 0in /  0.0mm 338 W/m2
15:43 60.3 °F /  15.7 °C 50.4 °F /  10.2 °C 29.9in /  1012.5hPa ENE 2.9mph /  4.7km/h 4mph /  6.4km/h 70% 0in /  0.0mm 278 W/m2
15:48 60.4 °F /  15.8 °C 50.2 °F /  10.1 °C 29.9in /  1012.5hPa NE 2mph /  3.2km/h 4mph /  6.4km/h 69% 0in /  0.0mm 225 W/m2
15:53 60.6 °F /  15.9 °C 49.3 °F /  9.6 °C 29.9in /  1012.5hPa SE 2.9mph /  4.7km/h 3mph /  4.8km/h 66% 0in /  0.0mm 188 W/m2
15:58 60.6 °F /  15.9 °C 48.7 °F /  9.3 °C 29.9in /  1012.5hPa NE 4mph /  6.4km/h 5mph /  8km/h 65% 0in /  0.0mm 181 W/m2
16:03 60.4 °F /  15.8 °C 48.6 °F /  9.2 °C 29.9in /  1012.5hPa NE 2mph /  3.2km/h 7mph /  11.3km/h 65% 0in /  0.0mm 260 W/m2
16:08 60.6 °F /  15.9 °C 48.7 °F /  9.3 °C 29.9in /  1012.5hPa North 0.9mph /  1.4km/h 3mph /  4.8km/h 65% 0in /  0.0mm 204 W/m2
16:13 60.8 °F /  16 °C 48.6 °F /  9.2 °C 29.9in /  1012.5hPa WNW 0.9mph /  1.4km/h 5mph /  8km/h 64% 0in /  0.0mm 149 W/m2
16:18 60.8 °F /  16 °C 48.6 °F /  9.2 °C 29.9in /  1012.2hPa SE 0.9mph /  1.4km/h 3mph /  4.8km/h 64% 0in /  0.0mm 127 W/m2
16:23 60.6 °F /  15.9 °C 48.4 °F /  9.1 °C 29.9in /  1012.2hPa ENE 0.9mph /  1.4km/h 2mph /  3.2km/h 64% 0in /  0.0mm 155 W/m2
16:28 60.6 °F /  15.9 °C 48.4 °F /  9.1 °C 29.9in /  1012.2hPa ENE 2mph /  3.2km/h 6mph /  9.7km/h 64% 0in /  0.0mm 200 W/m2
16:33 60.8 °F /  16 °C 47.7 °F /  8.7 °C 29.9in /  1012.2hPa West 2.9mph /  4.7km/h 6mph /  9.7km/h 62% 0in /  0.0mm 186 W/m2
16:38 60.8 °F /  16 °C 47.3 °F /  8.5 °C 29.9in /  1012.5hPa West 0.9mph /  1.4km/h 4mph /  6.4km/h 61% 0in /  0.0mm 185 W/m2
16:43 60.8 °F /  16 °C 46.8 °F /  8.2 °C 29.9in /  1012.5hPa WNW 0.9mph /  1.4km/h 3mph /  4.8km/h 60% 0in /  0.0mm 146 W/m2
16:48 60.8 °F /  16 °C 47.3 °F /  8.5 °C 29.9in /  1012.5hPa WNW 0.9mph /  1.4km/h 4mph /  6.4km/h 61% 0in /  0.0mm 125 W/m2
16:53 60.8 °F /  16 °C 47.3 °F /  8.5 °C 29.9in /  1012.2hPa WNW 2.9mph /  4.7km/h 3mph /  4.8km/h 61% 0in /  0.0mm 139 W/m2
16:58 60.8 °F /  16 °C 47.3 °F /  8.5 °C 29.9in /  1012.2hPa NW 0.9mph /  1.4km/h 3mph /  4.8km/h 61% 0in /  0.0mm 155 W/m2
17:03 61 °F /  16.1 °C 47.8 °F /  8.8 °C 29.9in /  1012.2hPa NW 2.9mph /  4.7km/h 6mph /  9.7km/h 62% 0in /  0.0mm 118 W/m2
17:08 60.4 °F /  15.8 °C 46.9 °F /  8.3 °C 29.9in /  1012.2hPa WNW 2mph /  3.2km/h 6mph /  9.7km/h 61% 0in /  0.0mm 100 W/m2
17:13 60.3 °F /  15.7 °C 46.8 °F /  8.2 °C 29.9in /  1012.2hPa West 6.9mph /  11.1km/h 8mph /  12.9km/h 61% 0in /  0.0mm 139 W/m2
17:18 60.3 °F /  15.7 °C 47.1 °F /  8.4 °C 29.9in /  1012.2hPa West 4mph /  6.4km/h 8mph /  12.9km/h 62% 0in /  0.0mm 380 W/m2
17:23 60.4 °F /  15.8 °C 46.9 °F /  8.3 °C 29.9in /  1012.2hPa WNW 2.9mph /  4.7km/h 7mph /  11.3km/h 61% 0in /  0.0mm 120 W/m2
17:28 60.4 °F /  15.8 °C 47.3 °F /  8.5 °C 29.9in /  1012.2hPa NW 0.9mph /  1.4km/h 3mph /  4.8km/h 62% 0in /  0.0mm 86 W/m2
17:33 60.3 °F /  15.7 °C 47.1 °F /  8.4 °C 29.9in /  1012.2hPa WNW 4mph /  6.4km/h 7mph /  11.3km/h 62% 0in /  0.0mm 97 W/m2
17:38 60.3 °F /  15.7 °C 47.7 °F /  8.7 °C 29.9in /  1012.2hPa WNW 2.9mph /  4.7km/h 5mph /  8km/h 63% 0in /  0.0mm 111 W/m2
17:43 60.4 °F /  15.8 °C 47.8 °F /  8.8 °C 29.9in /  1012.2hPa West 0.9mph /  1.4km/h 7mph /  11.3km/h 63% 0in /  0.0mm 155 W/m2
17:48 60.6 °F /  15.9 °C 48 °F /  8.9 °C 29.9in /  1012.2hPa WNW 2mph /  3.2km/h 6mph /  9.7km/h 63% 0in /  0.0mm 104 W/m2
17:53 60.6 °F /  15.9 °C 47.1 °F /  8.4 °C 29.9in /  1012.2hPa West 2mph /  3.2km/h 8mph /  12.9km/h 61% 0in /  0.0mm 114 W/m2
17:58 60.4 °F /  15.8 °C 46.9 °F /  8.3 °C 29.9in /  1012.2hPa WNW 2.9mph /  4.7km/h 4mph /  6.4km/h 61% 0in /  0.0mm 47 W/m2
18:03 60.1 °F /  15.6 °C 46.9 °F /  8.3 °C 29.9in /  1012.2hPa Calm   3mph /  4.8km/h 62% 0in /  0.0mm 42 W/m2
18:08 60.1 °F /  15.6 °C 46.9 °F /  8.3 °C 29.9in /  1012.2hPa NW 2.9mph /  4.7km/h 4mph /  6.4km/h 62% 0in /  0.0mm 37 W/m2
18:13 59.7 °F /  15.4 °C 46.8 °F /  8.2 °C 29.9in /  1012.2hPa ENE 0.9mph /  1.4km/h 4mph /  6.4km/h 62% 0in /  0.0mm 40 W/m2
18:18 59.5 °F /  15.3 °C 46.9 °F /  8.3 °C 29.9in /  1012.2hPa WNW 0.9mph /  1.4km/h 3mph /  4.8km/h 63% 0in /  0.0mm 42 W/m2
18:23 59.4 °F /  15.2 °C 46.8 °F /  8.2 °C 29.9in /  1012.2hPa WNW 2.9mph /  4.7km/h 4mph /  6.4km/h 63% 0in /  0.0mm 46 W/m2
18:28 59.4 °F /  15.2 °C 46.8 °F /  8.2 °C 29.9in /  1012.2hPa West 2mph /  3.2km/h 3mph /  4.8km/h 63% 0in /  0.0mm 49 W/m2
18:33 59.2 °F /  15.1 °C 46.9 °F /  8.3 °C 29.9in /  1012.2hPa WNW 2mph /  3.2km/h 4mph /  6.4km/h 64% 0in /  0.0mm 46 W/m2
18:38 59 °F /  15 °C 46.8 °F /  8.2 °C 29.9in /  1012.2hPa West 0.9mph /  1.4km/h 3mph /  4.8km/h 64% 0in /  0.0mm 37 W/m2
18:43 58.8 °F /  14.9 °C 46.6 °F /  8.1 °C 29.9in /  1012.2hPa Calm   3mph /  4.8km/h 64% 0in /  0.0mm 33 W/m2
18:48 58.6 °F /  14.8 °C 46.9 °F /  8.3 °C 29.9in /  1012.2hPa Calm   2mph /  3.2km/h 65% 0in /  0.0mm 28 W/m2
18:53 58.5 °F /  14.7 °C 46.8 °F /  8.2 °C 29.9in /  1012.2hPa West 0.9mph /  1.4km/h 2mph /  3.2km/h 65% 0in /  0.0mm 23 W/m2
18:58 58.3 °F /  14.6 °C 46.6 °F /  8.1 °C 29.9in /  1012.2hPa Calm   1mph /  1.6km/h 65% 0in /  0.0mm 18 W/m2
19:03 57.9 °F /  14.4 °C 46.6 °F /  8.1 °C 29.9in /  1012.2hPa West 0.9mph /  1.4km/h 3mph /  4.8km/h 66% 0in /  0.0mm 12 W/m2
19:08 57.7 °F /  14.3 °C 46.9 °F /  8.3 °C 29.9in /  1012.2hPa West 0.9mph /  1.4km/h 2mph /  3.2km/h 67% 0in /  0.0mm 11 W/m2
19:13 57.6 °F /  14.2 °C 46.8 °F /  8.2 °C 29.9in /  1012.2hPa West 2mph /  3.2km/h 3mph /  4.8km/h 67% 0in /  0.0mm 9 W/m2
19:18 57.6 °F /  14.2 °C 46.8 °F /  8.2 °C 29.9in /  1012.2hPa West 2mph /  3.2km/h 3mph /  4.8km/h 67% 0in /  0.0mm 7 W/m2
19:23 57.6 °F /  14.2 °C 46.8 °F /  8.2 °C 29.9in /  1012.2hPa West 0.9mph /  1.4km/h 2mph /  3.2km/h 67% 0in /  0.0mm 5 W/m2
19:28 57.4 °F /  14.1 °C 46.6 °F /  8.1 °C 29.9in /  1012.2hPa West 0.9mph /  1.4km/h 3mph /  4.8km/h 67% 0in /  0.0mm 0 W/m2
19:33 57.4 °F /  14.1 °C 46.6 °F /  8.1 °C 29.9in /  1012.2hPa West 0.9mph /  1.4km/h 3mph /  4.8km/h 67% 0in /  0.0mm 0 W/m2
19:38 57.4 °F /  14.1 °C 46 °F /  7.8 °C 29.9in /  1012.2hPa West 2mph /  3.2km/h 3mph /  4.8km/h 66% 0in /  0.0mm 0 W/m2
19:43 57.4 °F /  14.1 °C 46 °F /  7.8 °C 29.9in /  1012.5hPa WSW 0.9mph /  1.4km/h 2mph /  3.2km/h 66% 0in /  0.0mm 0 W/m2
19:48 57.4 °F /  14.1 °C 46 °F /  7.8 °C 29.9in /  1012.5hPa West 0.9mph /  1.4km/h 2mph /  3.2km/h 66% 0in /  0.0mm 0 W/m2
19:53 57.4 °F /  14.1 °C 46 °F /  7.8 °C 29.9in /  1012.5hPa West 0.9mph /  1.4km/h 2mph /  3.2km/h 66% 0in /  0.0mm 0 W/m2
19:58 57.2 °F /  14 °C 45.9 °F /  7.7 °C 29.9in /  1012.5hPa Calm   2mph /  3.2km/h 66% 0in /  0.0mm 0 W/m2
20:03 57 °F /  13.9 °C 46.2 °F /  7.9 °C 29.9in /  1012.5hPa West 0.9mph /  1.4km/h 1mph /  1.6km/h 67% 0in /  0.0mm 0 W/m2
20:08 56.8 °F /  13.8 °C 46 °F /  7.8 °C 29.9in /  1012.5hPa West 0.9mph /  1.4km/h 3mph /  4.8km/h 67% 0in /  0.0mm 0 W/m2
20:13 56.8 °F /  13.8 °C 46 °F /  7.8 °C 29.9in /  1012.5hPa West 0.9mph /  1.4km/h 1mph /  1.6km/h 67% 0in /  0.0mm 0 W/m2
20:18 56.7 °F /  13.7 °C 45.9 °F /  7.7 °C 29.9in /  1012.5hPa Calm   2mph /  3.2km/h 67% 0in /  0.0mm 0 W/m2
20:23 56.5 °F /  13.6 °C 46 °F /  7.8 °C 29.9in /  1012.5hPa Calm     68% 0in /  0.0mm 0 W/m2
20:28 55.9 °F /  13.3 °C 45.9 °F /  7.7 °C 29.9in /  1012.5hPa Calm   2mph /  3.2km/h 69% 0in /  0.0mm 0 W/m2
20:33 55.6 °F /  13.1 °C 45.5 °F /  7.5 °C 29.9in /  1012.5hPa Calm   1mph /  1.6km/h 69% 0in /  0.0mm 0 W/m2
20:38 55.2 °F /  12.9 °C 45.7 °F /  7.6 °C 29.9in /  1012.5hPa West 2mph /  3.2km/h 2mph /  3.2km/h 70% 0in /  0.0mm 0 W/m2
20:43 55 °F /  12.8 °C 45.5 °F /  7.5 °C 29.9in /  1012.5hPa West 0.9mph /  1.4km/h 1mph /  1.6km/h 70% 0in /  0.0mm 0 W/m2
20:48 54.9 °F /  12.7 °C 45.3 °F /  7.4 °C 29.9in /  1012.9hPa West 0.9mph /  1.4km/h 3mph /  4.8km/h 70% 0in /  0.0mm 0 W/m2
20:53 54.9 °F /  12.7 °C 45.3 °F /  7.4 °C 29.9in /  1012.5hPa West 2mph /  3.2km/h 3mph /  4.8km/h 70% 0in /  0.0mm 0 W/m2
20:58 55 °F /  12.8 °C 45.5 °F /  7.5 °C 29.9in /  1012.9hPa West 0.9mph /  1.4km/h 1mph /  1.6km/h 70% 0in /  0.0mm 0 W/m2
21:03 54.9 °F /  12.7 °C 45.7 °F /  7.6 °C 29.9in /  1012.9hPa Calm   3mph /  4.8km/h 71% 0in /  0.0mm 0 W/m2
21:08 54.3 °F /  12.4 °C 45.5 °F /  7.5 °C 29.9in /  1012.9hPa Calm     72% 0in /  0.0mm 0 W/m2
21:13 54.1 °F /  12.3 °C 45.7 °F /  7.6 °C 29.9in /  1012.9hPa Calm     73% 0in /  0.0mm 0 W/m2
21:18 53.6 °F /  12 °C 45.1 °F /  7.3 °C 29.9in /  1012.9hPa Calm   2mph /  3.2km/h 73% 0in /  0.0mm 0 W/m2
21:23 53.2 °F /  11.8 °C 45.1 °F /  7.3 °C 29.9in /  1012.9hPa West 0.9mph /  1.4km/h 1mph /  1.6km/h 74% 0in /  0.0mm 0 W/m2
21:28 53.1 °F /  11.7 °C 45 °F /  7.2 °C 29.9in /  1012.9hPa West 2mph /  3.2km/h 2mph /  3.2km/h 74% 0in /  0.0mm 0 W/m2
21:33 52.5 °F /  11.4 °C 45.1 °F /  7.3 °C 29.9in /  1012.9hPa West 0.9mph /  1.4km/h 1mph /  1.6km/h 76% 0in /  0.0mm 0 W/m2
21:38 52.3 °F /  11.3 °C 45.3 °F /  7.4 °C 29.9in /  1012.9hPa West 0.9mph /  1.4km/h 2mph /  3.2km/h 77% 0in /  0.0mm 0 W/m2
21:43 52 °F /  11.1 °C 45 °F /  7.2 °C 29.9in /  1012.9hPa Calm   1mph /  1.6km/h 77% 0in /  0.0mm 0 W/m2
21:48 51.8 °F /  11 °C 45.1 °F /  7.3 °C 29.9in /  1012.9hPa West 0.9mph /  1.4km/h 2mph /  3.2km/h 78% 0in /  0.0mm 0 W/m2
21:53 51.6 °F /  10.9 °C 45 °F /  7.2 °C 29.9in /  1012.9hPa West 0.9mph /  1.4km/h 3mph /  4.8km/h 78% 0in /  0.0mm 0 W/m2
21:58 51.8 °F /  11 °C 45.1 °F /  7.3 °C 29.9in /  1012.9hPa WSW 2.9mph /  4.7km/h 4mph /  6.4km/h 78% 0in /  0.0mm 0 W/m2
22:03 52.3 °F /  11.3 °C 45.3 °F /  7.4 °C 29.9in /  1012.9hPa Calm   1mph /  1.6km/h 77% 0in /  0.0mm 0 W/m2
22:08 52.3 °F /  11.3 °C 45.3 °F /  7.4 °C 29.9in /  1012.9hPa Calm   4mph /  6.4km/h 77% 0in /  0.0mm 0 W/m2
22:13 52.3 °F /  11.3 °C 45.3 °F /  7.4 °C 29.9in /  1012.5hPa WSW 0.9mph /  1.4km/h 1mph /  1.6km/h 77% 0in /  0.0mm 0 W/m2
22:18 52 °F /  11.1 °C 45.3 °F /  7.4 °C 29.9in /  1012.5hPa Calm     78% 0in /  0.0mm 0 W/m2
22:23 51.6 °F /  10.9 °C 45 °F /  7.2 °C 29.9in /  1012.5hPa Calm     78% 0in /  0.0mm 0 W/m2
22:29 51.3 °F /  10.7 °C 45 °F /  7.2 °C 29.9in /  1012.5hPa Calm     79% 0in /  0.0mm 0 W/m2
22:34 50.9 °F /  10.5 °C 45 °F /  7.2 °C 29.9in /  1012.5hPa Calm     80% 0in /  0.0mm 0 W/m2
22:39 50.5 °F /  10.3 °C 45 °F /  7.2 °C 29.9in /  1012.5hPa Calm     81% 0in /  0.0mm 0 W/m2
22:44 50.4 °F /  10.2 °C 44.8 °F /  7.1 °C 29.9in /  1012.5hPa Calm     81% 0in /  0.0mm 0 W/m2
22:49 50 °F /  10 °C 44.8 °F /  7.1 °C 29.9in /  1012.5hPa Calm     82% 0in /  0.0mm 0 W/m2
22:54 49.6 °F /  9.8 °C 44.4 °F /  6.9 °C 29.9in /  1012.5hPa Calm     82% 0in /  0.0mm 0 W/m2
22:59 49.5 °F /  9.7 °C 44.6 °F /  7 °C 29.9in /  1012.5hPa Calm     83% 0in /  0.0mm 0 W/m2
23:04 49.1 °F /  9.5 °C 44.2 °F /  6.8 °C 29.9in /  1012.5hPa Calm     83% 0in /  0.0mm 0 W/m2
23:09 48.7 °F /  9.3 °C 44.1 °F /  6.7 °C 29.9in /  1012.5hPa Calm     84% 0in /  0.0mm 0 W/m2
23:14 48.6 °F /  9.2 °C 43.9 °F /  6.6 °C 29.9in /  1012.5hPa Calm     84% 0in /  0.0mm 0 W/m2
23:19 48.4 °F /  9.1 °C 44.1 °F /  6.7 °C 29.9in /  1012.5hPa Calm     85% 0in /  0.0mm 0 W/m2
23:24 48 °F /  8.9 °C 44.1 °F /  6.7 °C 29.9in /  1012.5hPa Calm   2mph /  3.2km/h 86% 0in /  0.0mm 0 W/m2
23:29 47.8 °F /  8.8 °C 43.9 °F /  6.6 °C 29.9in /  1012.5hPa Calm   1mph /  1.6km/h 86% 0in /  0.0mm 0 W/m2
23:34 47.8 °F /  8.8 °C 43.9 °F /  6.6 °C 29.9in /  1012.2hPa Calm     86% 0in /  0.0mm 0 W/m2
23:39 47.7 °F /  8.7 °C 44.1 °F /  6.7 °C 29.9in /  1012.2hPa Calm   1mph /  1.6km/h 87% 0in /  0.0mm 0 W/m2
23:44 47.5 °F /  8.6 °C 43.9 °F /  6.6 °C 29.9in /  1012.2hPa Calm   1mph /  1.6km/h 87% 0in /  0.0mm 0 W/m2
23:49 47.5 °F /  8.6 °C 43.9 °F /  6.6 °C 29.9in /  1012.2hPa Calm     87% 0in /  0.0mm 0 W/m2
23:54 47.3 °F /  8.5 °C 43.7 °F /  6.5 °C 29.9in /  1012.2hPa WSW 0.9mph /  1.4km/h 1mph /  1.6km/h 87% 0in /  0.0mm 0 W/m2
23:59 47.5 °F /  8.6 °C 44.1 °F /  6.7 °C 29.9in /  1012.2hPa WNW 0.9mph /  1.4km/h 3mph /  4.8km/h 88% 0in /  0.0mm 0 W/m2
Juneau County Weather
Compliments of Weather Underground - 4 mb